Time;durP1;ratioP1;P1;durP2;ratioP2;P2;SDS_P1;SDS_P2;PMS_P1;PMS_P2;Temp;Humidity;BMP_temperature;BMP_pressure;BME280_temperature;BME280_humidity;BME280_pressure;Samples;Min_cycle;Max_cycle;Signal;HPM_P1;HPM_P2
2021/05/19 00:00:17;;;;;;;9.13;8.33;;;;;21.50;100425.00;;;;2053703;28;20218;-52
2021/05/19 00:01:17;;;;;;;9.00;8.20;;;;;21.50;100421.00;;;;2053132;28;20226;-53
2021/05/19 00:02:18;;;;;;;9.10;8.20;;;;;21.50;100411.00;;;;2052345;28;20269;-52
2021/05/19 00:03:18;;;;;;;8.37;7.67;;;;;21.50;100422.00;;;;2053667;28;20220;-52
2021/05/19 00:04:18;;;;;;;9.13;8.23;;;;;21.50;100420.00;;;;2053235;28;20923;-53
2021/05/19 00:05:19;;;;;;;9.30;8.50;;;;;21.50;100426.00;;;;2051959;28;20582;-53
2021/05/19 00:06:19;;;;;;;9.13;8.30;;;;;21.50;100413.00;;;;2053978;28;20221;-52
2021/05/19 00:07:19;;;;;;;8.87;8.07;;;;;21.50;100408.00;;;;2053906;28;20294;-52
2021/05/19 00:08:20;;;;;;;9.00;8.20;;;;;21.50;100418.00;;;;2047276;28;20316;-53
2021/05/19 00:09:20;;;;;;;9.07;8.27;;;;;21.40;100416.00;;;;2045116;28;20768;-52
2021/05/19 00:10:20;;;;;;;8.67;7.97;;;;;21.50;100421.00;;;;2044315;28;20600;-52
2021/05/19 00:11:21;;;;;;;8.70;8.00;;;;;21.50;100423.00;;;;2048377;28;20220;-52
2021/05/19 00:12:21;;;;;;;8.53;7.80;;;;;21.50;100427.00;;;;2045686;28;20238;-52
2021/05/19 00:13:21;;;;;;;8.83;8.03;;;;;21.40;100418.00;;;;2045938;28;20228;-52
2021/05/19 00:14:22;;;;;;;7.90;7.20;;;;;21.50;100422.00;;;;2045723;28;20227;-53
2021/05/19 00:15:22;;;;;;;8.60;7.90;;;;;21.50;100416.00;;;;2045708;28;20222;-52
2021/05/19 00:16:22;;;;;;;7.70;7.00;;;;;21.40;100420.00;;;;2043422;28;20267;-52
2021/05/19 00:17:23;;;;;;;8.50;7.80;;;;;21.40;100422.00;;;;2044534;28;20224;-52
2021/05/19 00:18:23;;;;;;;8.50;7.80;;;;;21.40;100417.00;;;;2042342;28;20238;-52
2021/05/19 00:19:23;;;;;;;7.90;7.17;;;;;21.40;100420.00;;;;2044335;28;20242;-52
2021/05/19 00:20:24;;;;;;;8.10;7.40;;;;;21.40;100422.00;;;;2042677;28;20317;-52
2021/05/19 00:21:24;;;;;;;8.20;7.50;;;;;21.40;100425.00;;;;2044730;28;20225;-52
2021/05/19 00:22:25;;;;;;;7.80;7.20;;;;;21.40;100421.00;;;;2035876;29;20221;-52
2021/05/19 00:23:25;;;;;;;8.00;7.30;;;;;21.40;100423.00;;;;2044518;28;20280;-52
2021/05/19 00:24:25;;;;;;;8.10;7.40;;;;;21.40;100422.00;;;;2045012;28;20291;-52
2021/05/19 00:25:27;;;;;;;8.10;7.30;;;;;21.40;100425.00;;;;2043103;28;20225;-52
2021/05/19 00:26:27;;;;;;;8.73;7.72;;;;;21.40;100420.00;;;;2045368;28;20331;-52
2021/05/19 00:27:27;;;;;;;8.40;7.60;;;;;21.40;100417.00;;;;2045791;28;20214;-52
2021/05/19 00:28:28;;;;;;;7.90;7.20;;;;;21.40;100426.00;;;;2045652;28;20740;-53
2021/05/19 00:29:28;;;;;;;7.90;7.20;;;;;21.40;100423.00;;;;2043595;28;20348;-52
2021/05/19 00:30:30;;;;;;;8.17;7.37;;;;;21.40;100419.00;;;;2043848;28;20235;-52
2021/05/19 00:31:32;;;;;;;8.18;7.47;;;;;21.40;100419.00;;;;2044924;28;20280;-52
2021/05/19 00:32:33;;;;;;;7.55;6.95;;;;;21.40;100418.00;;;;2045630;28;20227;-52
2021/05/19 00:33:33;;;;;;;8.43;7.73;;;;;21.40;100427.00;;;;2043864;28;20294;-52
2021/05/19 00:34:34;;;;;;;7.60;6.97;;;;;21.40;100424.00;;;;2039534;28;20214;-53
2021/05/19 00:35:34;;;;;;;7.97;7.30;;;;;21.30;100421.00;;;;2045097;28;20296;-52
2021/05/19 00:36:35;;;;;;;8.10;7.27;;;;;21.40;100417.00;;;;2044841;28;20218;-53
2021/05/19 00:37:35;;;;;;;8.40;7.70;;;;;21.40;100418.00;;;;2043688;28;20741;-52
2021/05/19 00:38:35;;;;;;;8.30;7.53;;;;;21.40;100413.00;;;;2047450;28;20218;-52
2021/05/19 00:39:36;;;;;;;8.57;7.67;;;;;21.40;100413.00;;;;2047744;28;20640;-53
2021/05/19 00:40:36;;;;;;;8.20;7.40;;;;;21.40;100415.00;;;;2045328;28;20234;-52
2021/05/19 00:41:38;;;;;;;7.63;6.93;;;;;21.40;100412.00;;;;2045026;28;20254;-53
2021/05/19 00:42:38;;;;;;;7.85;7.15;;;;;21.40;100411.00;;;;2044869;29;20308;-53
2021/05/19 00:43:39;;;;;;;7.70;7.00;;;;;21.30;100416.00;;;;2042207;29;20234;-52
2021/05/19 00:44:39;;;;;;;8.43;7.73;;;;;21.30;100412.00;;;;2052441;28;20225;-52
2021/05/19 00:45:40;;;;;;;7.40;6.80;;;;;21.30;100418.00;;;;2047148;28;20311;-52
2021/05/19 00:46:43;;;;;;;6.90;6.40;;;;;21.30;100419.00;;;;2043017;28;20253;-52
2021/05/19 00:47:44;;;;;;;7.40;6.80;;;;;21.30;100410.00;;;;2049503;28;20235;-52
2021/05/19 00:48:44;;;;;;;7.63;6.93;;;;;21.30;100421.00;;;;2048492;28;20248;-52
2021/05/19 00:49:45;;;;;;;8.30;7.50;;;;;21.30;100416.00;;;;2051890;28;20224;-53
2021/05/19 00:50:45;;;;;;;8.27;7.57;;;;;21.30;100413.00;;;;2045119;28;20218;-52
2021/05/19 00:51:45;;;;;;;8.03;7.33;;;;;21.30;100413.00;;;;2044842;28;20213;-53
2021/05/19 00:52:46;;;;;;;7.57;6.80;;;;;21.30;100415.00;;;;2045455;28;20226;-52
2021/05/19 00:53:46;;;;;;;7.50;6.90;;;;;21.30;100419.00;;;;2043493;28;20589;-52
2021/05/19 00:54:46;;;;;;;7.77;7.10;;;;;21.30;100419.00;;;;2045503;28;20637;-52
2021/05/19 00:55:47;;;;;;;8.10;7.40;;;;;21.30;100416.00;;;;2044710;28;20243;-52
2021/05/19 00:56:47;;;;;;;7.93;7.23;;;;;21.30;100418.00;;;;2045016;28;20304;-52
2021/05/19 00:57:49;;;;;;;7.33;6.73;;;;;21.30;100419.00;;;;2045405;28;20224;-52
2021/05/19 00:58:51;;;;;;;7.75;7.05;;;;;21.30;100419.00;;;;2044227;28;20235;-53
2021/05/19 00:59:51;;;;;;;6.70;6.20;;;;;21.30;100421.00;;;;2036681;29;20314;-52
2021/05/19 01:00:51;;;;;;;7.70;7.10;;;;;21.30;100422.00;;;;2019003;29;20219;-52
2021/05/19 01:01:52;;;;;;;7.40;6.80;;;;;21.30;100423.00;;;;2033990;29;20671;-52
2021/05/19 01:02:52;;;;;;;7.07;6.47;;;;;21.20;100419.00;;;;2045703;28;20209;-53
2021/05/19 01:03:53;;;;;;;7.70;7.00;;;;;21.30;100416.00;;;;2034408;28;20217;-52
2021/05/19 01:04:54;;;;;;;7.97;7.27;;;;;21.20;100415.00;;;;2051540;28;20248;-53
2021/05/19 01:06:04;;;;;;;6.83;6.23;;;;;21.30;100413.00;;;;2052471;28;20220;-52
2021/05/19 01:07:16;;;;;;;7.68;7.10;;;;;21.20;100420.00;;;;2050720;28;20503;-52
2021/05/19 01:09:35;;;;;;;7.60;7.00;;;;;21.20;100414.00;;;;2034414;28;20214;-53
2021/05/19 01:10:35;;;;;;;7.27;6.67;;;;;21.30;100407.00;;;;2045181;28;20221;-52
2021/05/19 01:11:37;;;;;;;7.57;6.90;;;;;21.30;100413.00;;;;2045625;28;20224;-52
2021/05/19 01:12:37;;;;;;;6.97;6.38;;;;;21.30;100412.00;;;;2043763;28;20221;-52
2021/05/19 01:13:39;;;;;;;7.00;6.50;;;;;21.30;100416.00;;;;2036925;29;20243;-52
2021/05/19 01:14:39;;;;;;;7.43;6.90;;;;;21.30;100417.00;;;;2031700;28;20647;-53
2021/05/19 01:15:40;;;;;;;6.90;6.30;;;;;21.30;100425.00;;;;2051077;28;20225;-52
2021/05/19 01:16:40;;;;;;;7.17;6.60;;;;;21.20;100418.00;;;;2053409;28;20304;-52
2021/05/19 01:17:41;;;;;;;7.57;6.63;;;;;21.30;100418.00;;;;2051295;28;20212;-52
2021/05/19 01:18:41;;;;;;;6.13;5.70;;;;;21.20;100417.00;;;;2037104;29;20647;-52
2021/05/19 01:19:46;;;;;;;6.53;6.03;;;;;21.20;100420.00;;;;2035474;29;20321;-52
2021/05/19 01:20:47;;;;;;;6.78;6.28;;;;;21.20;100415.00;;;;2053318;28;20262;-52
2021/05/19 01:21:48;;;;;;;6.50;6.00;;;;;21.20;100415.00;;;;2044410;29;20225;-52
2021/05/19 01:22:48;;;;;;;6.33;5.83;;;;;21.20;100413.00;;;;2041937;29;20221;-52
2021/05/19 01:23:48;;;;;;;6.40;5.90;;;;;21.20;100402.00;;;;2044378;29;20453;-53
2021/05/19 01:24:49;;;;;;;6.07;5.67;;;;;21.20;100414.00;;;;2034195;29;20218;-52
2021/05/19 01:25:49;;;;;;;6.10;5.50;;;;;21.20;100414.00;;;;2045153;29;20225;-53
2021/05/19 01:26:50;;;;;;;6.47;5.97;;;;;21.20;100412.00;;;;2051496;28;20220;-52
2021/05/19 01:27:54;;;;;;;6.10;5.60;;;;;21.20;100418.00;;;;2053245;28;20570;-52
2021/05/19 01:28:55;;;;;;;6.43;5.93;;;;;21.20;100413.00;;;;2053097;28;20550;-52
2021/05/19 01:29:56;;;;;;;7.50;6.90;;;;;21.20;100407.00;;;;2053218;28;20303;-52
2021/05/19 01:30:57;;;;;;;6.68;6.13;;;;;21.20;100412.00;;;;2051335;28;20928;-52
2021/05/19 01:31:57;;;;;;;6.20;5.70;;;;;21.20;100405.00;;;;2050332;28;20208;-52
2021/05/19 01:32:57;;;;;;;5.60;5.20;;;;;21.20;100410.00;;;;2052020;28;20216;-52
2021/05/19 01:33:58;;;;;;;6.37;5.87;;;;;21.20;100403.00;;;;2050227;28;20221;-52
2021/05/19 01:34:58;;;;;;;5.47;5.07;;;;;21.20;100410.00;;;;2051377;28;20703;-53
2021/05/19 01:35:58;;;;;;;6.23;5.73;;;;;21.20;100404.00;;;;2050931;28;20248;-52
2021/05/19 01:36:59;;;;;;;6.80;6.30;;;;;21.20;100405.00;;;;2049503;28;20239;-53
2021/05/19 01:37:59;;;;;;;6.37;5.87;;;;;21.20;100408.00;;;;2049532;28;20219;-53
2021/05/19 01:38:59;;;;;;;6.10;5.57;;;;;21.20;100406.00;;;;2044323;28;20225;-52
2021/05/19 01:40:00;;;;;;;6.67;6.17;;;;;21.10;100406.00;;;;2045331;28;20225;-52
2021/05/19 01:41:01;;;;;;;5.60;5.20;;;;;21.10;100401.00;;;;2047903;28;20757;-52
2021/05/19 01:42:01;;;;;;;5.70;5.20;;;;;21.10;100411.00;;;;2037331;29;20308;-52
2021/05/19 01:43:02;;;;;;;6.10;5.60;;;;;21.10;100401.00;;;;2034131;29;20494;-52
2021/05/19 01:44:29;;;;;;;6.25;5.82;;;;;21.20;100412.00;;;;2043915;28;20638;-52
2021/05/19 01:45:29;;;;;;;6.40;5.90;;;;;21.10;100404.00;;;;2044118;28;20235;-52
2021/05/19 01:46:29;;;;;;;5.83;5.43;;;;;21.20;100405.00;;;;2053423;28;20245;-53
2021/05/19 01:47:39;;;;;;;6.00;5.50;;;;;21.20;100399.00;;;;2053437;28;20239;-52
2021/05/19 01:48:39;;;;;;;6.30;5.80;;;;;21.10;100407.00;;;;2050936;28;20236;-52
2021/05/19 01:49:42;;;;;;;6.20;5.70;;;;;21.10;100408.00;;;;2035558;28;20234;-53
2021/05/19 01:50:42;;;;;;;5.95;5.45;;;;;21.10;100403.00;;;;2044744;28;20250;-53
2021/05/19 01:51:43;;;;;;;5.60;5.20;;;;;21.10;100406.00;;;;2045976;28;20224;-53
2021/05/19 01:52:43;;;;;;;6.20;5.70;;;;;21.10;100411.00;;;;2053530;28;20229;-52
2021/05/19 01:53:44;;;;;;;6.03;5.53;;;;;21.10;100410.00;;;;2053066;28;20295;-53
2021/05/19 01:54:45;;;;;;;6.73;6.23;;;;;21.10;100408.00;;;;2044534;29;20455;-52
2021/05/19 01:55:45;;;;;;;6.00;5.60;;;;;21.10;100401.00;;;;2035026;29;20730;-52
2021/05/19 01:56:46;;;;;;;4.77;4.40;;;;;21.10;100406.00;;;;2044968;28;20213;-52
2021/05/19 01:57:46;;;;;;;6.53;6.03;;;;;21.10;100403.00;;;;2051084;28;20562;-52
2021/05/19 01:58:47;;;;;;;5.90;5.50;;;;;21.10;100405.00;;;;2053232;28;20230;-52
2021/05/19 01:59:47;;;;;;;5.97;5.47;;;;;21.10;100402.00;;;;2044831;28;20229;-53
2021/05/19 02:00:48;;;;;;;5.73;5.33;;;;;21.10;100403.00;;;;2045482;28;20698;-53
2021/05/19 02:01:48;;;;;;;5.37;4.87;;;;;21.10;100405.00;;;;2051271;28;20652;-52
2021/05/19 02:02:59;;;;;;;5.60;5.20;;;;;21.10;100409.00;;;;2053814;28;20263;-52
2021/05/19 02:04:10;;;;;;;5.72;5.32;;;;;21.10;100401.00;;;;2046244;28;20231;-52
2021/05/19 02:05:11;;;;;;;5.85;5.35;;;;;21.10;100407.00;;;;2046316;28;20225;-52
2021/05/19 02:06:11;;;;;;;5.53;5.13;;;;;21.10;100401.00;;;;2046924;28;20256;-52
2021/05/19 02:07:11;;;;;;;6.47;5.97;;;;;21.10;100397.00;;;;2055033;28;20984;-52
2021/05/19 02:08:12;;;;;;;5.83;5.33;;;;;21.10;100406.00;;;;2053349;28;20208;-53
2021/05/19 02:09:13;;;;;;;5.83;5.37;;;;;21.10;100413.00;;;;2043661;28;20212;-52
2021/05/19 02:10:13;;;;;;;5.70;5.20;;;;;21.10;100407.00;;;;2039757;29;20217;-52
2021/05/19 02:11:13;;;;;;;5.10;4.70;;;;;21.00;100407.00;;;;2045875;28;20464;-53
2021/05/19 02:12:14;;;;;;;5.10;4.70;;;;;21.10;100412.00;;;;2046774;28;20312;-53
2021/05/19 02:13:16;;;;;;;5.57;5.17;;;;;21.10;100404.00;;;;2043230;29;20303;-53
2021/05/19 02:14:17;;;;;;;4.97;4.57;;;;;21.00;100408.00;;;;2046196;29;20551;-52
2021/05/19 02:15:17;;;;;;;5.07;4.67;;;;;21.00;100407.00;;;;2046748;28;20704;-52
2021/05/19 02:16:18;;;;;;;5.80;5.30;;;;;21.10;100405.00;;;;2045434;28;20322;-52
2021/05/19 02:17:18;;;;;;;5.57;5.10;;;;;21.00;100405.00;;;;2046587;28;20244;-52
2021/05/19 02:18:18;;;;;;;5.33;4.93;;;;;21.00;100420.00;;;;2045244;29;20267;-52
2021/05/19 02:19:19;;;;;;;5.40;5.00;;;;;21.00;100400.00;;;;2046172;28;21066;-53
2021/05/19 02:20:21;;;;;;;5.40;5.00;;;;;21.10;100410.00;;;;2045404;28;20216;-52
2021/05/19 02:21:21;;;;;;;5.43;5.03;;;;;21.00;100404.00;;;;2045246;29;20244;-52
2021/05/19 02:22:22;;;;;;;5.20;4.80;;;;;21.00;100403.00;;;;2043167;28;20558;-52
2021/05/19 02:23:22;;;;;;;5.73;5.30;;;;;21.00;100410.00;;;;2046387;28;20219;-52
2021/05/19 02:24:22;;;;;;;5.17;4.77;;;;;21.00;100410.00;;;;2046707;28;20461;-52
2021/05/19 02:25:23;;;;;;;5.17;4.77;;;;;21.00;100411.00;;;;2046237;28;20224;-52
2021/05/19 02:26:23;;;;;;;4.83;4.43;;;;;21.00;100399.00;;;;2046561;28;20241;-52
2021/05/19 02:27:24;;;;;;;5.23;4.83;;;;;21.00;100413.00;;;;2046372;29;20316;-52
2021/05/19 02:28:24;;;;;;;5.23;4.83;;;;;21.00;100411.00;;;;2046546;28;20217;-53
2021/05/19 02:29:24;;;;;;;4.90;4.50;;;;;21.00;100414.00;;;;2046585;28;20821;-52
2021/05/19 02:30:25;;;;;;;5.60;5.20;;;;;21.00;100414.00;;;;2044668;29;20259;-52
2021/05/19 02:31:25;;;;;;;5.20;4.80;;;;;21.00;100415.00;;;;2045999;28;20264;-52
2021/05/19 02:32:26;;;;;;;4.70;4.30;;;;;21.00;100416.00;;;;2045254;28;20221;-52
2021/05/19 02:33:27;;;;;;;4.73;4.43;;;;;21.00;100416.00;;;;2046735;28;20241;-52
2021/05/19 02:34:27;;;;;;;5.30;4.80;;;;;21.00;100413.00;;;;2045590;28;20461;-53
2021/05/19 02:35:27;;;;;;;5.23;4.83;;;;;21.00;100417.00;;;;2044372;28;20263;-52
2021/05/19 02:36:28;;;;;;;5.50;5.10;;;;;21.00;100416.00;;;;2044120;28;20252;-52
2021/05/19 02:37:28;;;;;;;4.80;4.50;;;;;21.00;100405.00;;;;2044984;28;20276;-53
2021/05/19 02:38:28;;;;;;;5.13;4.73;;;;;21.00;100411.00;;;;2046212;28;20710;-52
2021/05/19 02:39:29;;;;;;;4.60;4.30;;;;;21.00;100411.00;;;;2042984;28;20339;-53
2021/05/19 02:40:30;;;;;;;5.27;4.87;;;;;21.00;100404.00;;;;2047944;28;20300;-55
2021/05/19 02:41:30;;;;;;;5.10;4.70;;;;;21.00;100403.00;;;;2047299;28;20228;-53
2021/05/19 02:42:31;;;;;;;4.80;4.40;;;;;21.00;100400.00;;;;2046735;28;20296;-54
2021/05/19 02:43:31;;;;;;;5.27;4.87;;;;;21.00;100402.00;;;;2046662;28;20275;-54
2021/05/19 02:44:31;;;;;;;4.90;4.50;;;;;21.00;100403.00;;;;2046865;28;20711;-52
2021/05/19 02:45:32;;;;;;;4.67;4.37;;;;;21.00;100395.00;;;;2052968;28;20866;-52
2021/05/19 02:46:32;;;;;;;4.90;4.60;;;;;21.00;100404.00;;;;2052196;28;20224;-53
2021/05/19 02:47:32;;;;;;;4.80;4.50;;;;;21.00;100396.00;;;;2052663;28;20220;-53
2021/05/19 02:48:33;;;;;;;4.67;4.20;;;;;21.00;100400.00;;;;2054640;28;20228;-52
2021/05/19 02:49:33;;;;;;;4.57;4.27;;;;;21.00;100399.00;;;;2039849;29;20225;-53
2021/05/19 02:50:34;;;;;;;4.50;4.20;;;;;21.00;100390.00;;;;2037862;29;20249;-52
2021/05/19 02:51:35;;;;;;;4.50;4.20;;;;;21.00;100400.00;;;;2045624;28;20243;-52
2021/05/19 02:52:36;;;;;;;5.30;4.90;;;;;21.00;100404.00;;;;2046245;28;20217;-52
2021/05/19 02:53:36;;;;;;;4.70;4.40;;;;;21.00;100400.00;;;;2046280;28;20223;-52
2021/05/19 02:54:37;;;;;;;4.50;4.20;;;;;20.90;100396.00;;;;2046773;28;20276;-52
2021/05/19 02:55:37;;;;;;;4.67;4.37;;;;;21.00;100398.00;;;;2042084;28;20212;-52
2021/05/19 02:56:37;;;;;;;4.50;4.20;;;;;20.90;100394.00;;;;2046386;28;20213;-52
2021/05/19 02:57:38;;;;;;;5.00;4.70;;;;;20.90;100402.00;;;;2046421;28;20617;-52
2021/05/19 02:58:38;;;;;;;5.00;4.50;;;;;20.90;100401.00;;;;2046397;28;20255;-52
2021/05/19 02:59:39;;;;;;;4.70;4.40;;;;;20.90;100398.00;;;;2046529;28;20308;-52
2021/05/19 03:00:39;;;;;;;4.70;4.40;;;;;21.00;100394.00;;;;2046179;28;20263;-52
2021/05/19 03:01:40;;;;;;;4.53;4.23;;;;;21.00;100400.00;;;;2044438;29;20224;-52
2021/05/19 03:02:40;;;;;;;4.53;4.23;;;;;20.90;100395.00;;;;2047894;28;20227;-52
2021/05/19 03:03:40;;;;;;;4.90;4.50;;;;;20.90;100402.00;;;;2050850;28;20246;-52
2021/05/19 03:04:41;;;;;;;4.73;4.43;;;;;20.70;100402.00;;;;2054521;28;20605;-52
2021/05/19 03:05:41;;;;;;;4.10;3.80;;;;;20.90;100406.00;;;;2054389;28;20216;-53
2021/05/19 03:06:42;;;;;;;4.67;4.37;;;;;20.90;100408.00;;;;2054191;28;20729;-53
2021/05/19 03:07:44;;;;;;;5.00;4.50;;;;;20.90;100407.00;;;;2054343;28;20216;-52
2021/05/19 03:08:44;;;;;;;4.80;4.40;;;;;20.90;100411.00;;;;2043463;28;20260;-52
2021/05/19 03:09:44;;;;;;;4.97;4.57;;;;;20.90;100403.00;;;;2046853;28;20690;-53
2021/05/19 03:10:45;;;;;;;4.93;4.53;;;;;20.90;100409.00;;;;2042866;28;20574;-52
2021/05/19 03:11:45;;;;;;;4.40;4.10;;;;;20.90;100412.00;;;;2041751;28;20217;-52
2021/05/19 03:12:45;;;;;;;4.50;4.20;;;;;20.90;100414.00;;;;2045571;28;20247;-52
2021/05/19 03:13:46;;;;;;;4.70;4.40;;;;;20.90;100409.00;;;;2043572;28;20687;-52
2021/05/19 03:14:46;;;;;;;5.43;5.03;;;;;20.90;100406.00;;;;2046137;28;20670;-52
2021/05/19 03:15:47;;;;;;;4.93;4.53;;;;;20.90;100411.00;;;;2046205;28;20217;-52
2021/05/19 03:16:47;;;;;;;5.07;4.67;;;;;20.90;100417.00;;;;2045119;28;20586;-52
2021/05/19 03:17:47;;;;;;;4.73;4.37;;;;;20.90;100415.00;;;;2044766;29;20217;-52
2021/05/19 03:18:48;;;;;;;5.13;4.73;;;;;20.90;100414.00;;;;2046358;28;20280;-52
2021/05/19 03:19:48;;;;;;;4.43;4.13;;;;;20.90;100411.00;;;;2046457;28;20268;-52
2021/05/19 03:20:49;;;;;;;4.10;3.80;;;;;20.90;100409.00;;;;2043501;28;22120;-52
2021/05/19 03:21:49;;;;;;;4.43;4.13;;;;;20.90;100418.00;;;;2045757;28;20251;-52
2021/05/19 03:22:49;;;;;;;5.13;4.73;;;;;20.90;100419.00;;;;2033904;29;20257;-53
2021/05/19 03:23:50;;;;;;;4.80;4.50;;;;;20.90;100415.00;;;;2042102;29;20221;-53
2021/05/19 03:24:50;;;;;;;4.90;4.50;;;;;20.90;100427.00;;;;2053994;28;21004;-52
2021/05/19 03:25:50;;;;;;;5.03;4.53;;;;;20.90;100425.00;;;;2050802;28;20224;-52
2021/05/19 03:26:51;;;;;;;4.83;4.43;;;;;20.90;100431.00;;;;2054165;28;20220;-52
2021/05/19 03:27:51;;;;;;;5.37;4.97;;;;;20.90;100416.00;;;;2054105;28;20789;-52
2021/05/19 03:28:51;;;;;;;4.97;4.57;;;;;20.90;100425.00;;;;2049279;28;20718;-52
2021/05/19 03:29:52;;;;;;;4.90;4.60;;;;;20.90;100423.00;;;;2053658;28;20254;-52
2021/05/19 03:30:52;;;;;;;4.60;4.30;;;;;20.90;100428.00;;;;2049084;28;20235;-52
2021/05/19 03:31:52;;;;;;;4.37;4.07;;;;;20.90;100428.00;;;;2050203;28;20343;-52
2021/05/19 03:32:53;;;;;;;5.77;5.27;;;;;20.80;100425.00;;;;2046356;28;20304;-52
2021/05/19 03:33:53;;;;;;;4.57;4.27;;;;;20.80;100402.00;;;;2045952;28;20276;-53
2021/05/19 03:34:53;;;;;;;5.30;4.90;;;;;20.80;100430.00;;;;2046156;28;20700;-53
2021/05/19 03:35:54;;;;;;;4.83;4.53;;;;;20.80;100443.00;;;;2045926;28;20369;-52
2021/05/19 03:36:54;;;;;;;4.53;4.23;;;;;20.90;100426.00;;;;2043180;28;20225;-52
2021/05/19 03:37:55;;;;;;;5.10;4.70;;;;;20.90;100429.00;;;;2047892;28;20217;-52
2021/05/19 03:38:55;;;;;;;4.80;4.43;;;;;20.90;100431.00;;;;2046961;28;20586;-52
2021/05/19 03:39:55;;;;;;;4.73;4.40;;;;;20.80;100430.00;;;;2049317;28;20225;-52
2021/05/19 03:40:56;;;;;;;4.50;4.20;;;;;20.80;100430.00;;;;2049098;28;20212;-52
2021/05/19 03:41:56;;;;;;;4.50;4.20;;;;;20.80;100433.00;;;;2045070;28;20233;-52
2021/05/19 03:42:56;;;;;;;4.53;4.23;;;;;20.80;100429.00;;;;2042396;28;20221;-52
2021/05/19 03:43:57;;;;;;;4.80;4.50;;;;;20.80;100433.00;;;;2041959;28;20216;-53
2021/05/19 03:44:57;;;;;;;5.20;4.70;;;;;20.80;100433.00;;;;2043464;28;20220;-52
2021/05/19 03:45:57;;;;;;;4.23;3.93;;;;;20.80;100441.00;;;;2045400;28;20240;-53
2021/05/19 03:46:58;;;;;;;4.40;4.10;;;;;20.80;100436.00;;;;2046288;28;20223;-52
2021/05/19 03:47:58;;;;;;;4.90;4.50;;;;;20.80;100438.00;;;;2045828;28;20216;-53
2021/05/19 03:48:59;;;;;;;4.40;4.10;;;;;20.80;100442.00;;;;2045682;29;20229;-52
2021/05/19 03:50:00;;;;;;;4.10;3.80;;;;;20.80;100432.00;;;;2045398;28;20216;-52
2021/05/19 03:51:00;;;;;;;4.70;4.40;;;;;20.80;100434.00;;;;2045172;28;20453;-53
2021/05/19 03:52:01;;;;;;;4.10;3.80;;;;;20.80;100434.00;;;;2045910;28;20214;-53
2021/05/19 03:53:01;;;;;;;4.60;4.30;;;;;20.80;100431.00;;;;2044675;28;20340;-53
2021/05/19 03:54:03;;;;;;;4.53;4.20;;;;;20.80;100438.00;;;;2041283;28;20217;-52
2021/05/19 03:55:04;;;;;;;4.60;4.20;;;;;20.80;100437.00;;;;2045479;29;20231;-53
2021/05/19 03:56:04;;;;;;;4.45;4.15;;;;;20.80;100441.00;;;;2045967;28;20621;-52
2021/05/19 03:57:05;;;;;;;4.53;4.23;;;;;20.80;100440.00;;;;2044595;28;20216;-53
2021/05/19 03:58:05;;;;;;;4.28;3.90;;;;;20.80;100436.00;;;;2045920;28;20214;-53
2021/05/19 03:59:06;;;;;;;4.70;4.30;;;;;20.80;100438.00;;;;2045856;28;20574;-53
2021/05/19 04:00:09;;;;;;;5.03;4.63;;;;;20.80;100439.00;;;;2042810;28;20225;-52
2021/05/19 04:01:09;;;;;;;5.00;4.60;;;;;20.80;100447.00;;;;2045029;28;21035;-52
2021/05/19 04:02:10;;;;;;;4.93;4.53;;;;;20.80;100446.00;;;;2041265;28;20236;-52
2021/05/19 04:03:10;;;;;;;5.10;4.70;;;;;20.80;100447.00;;;;2045553;28;20232;-53
2021/05/19 04:04:10;;;;;;;5.07;4.67;;;;;20.80;100438.00;;;;2031159;29;20266;-52
2021/05/19 04:05:11;;;;;;;5.73;5.23;;;;;20.80;100441.00;;;;2037448;29;20243;-52
2021/05/19 04:06:12;;;;;;;5.27;4.73;;;;;20.70;100444.00;;;;2045410;28;20222;-52
2021/05/19 04:07:12;;;;;;;4.80;4.40;;;;;20.60;100444.00;;;;2045574;28;20247;-52
2021/05/19 04:08:12;;;;;;;4.50;4.20;;;;;20.60;100445.00;;;;2047783;28;20220;-52
2021/05/19 04:09:13;;;;;;;4.80;4.40;;;;;20.70;100446.00;;;;2047912;28;20215;-52
2021/05/19 04:10:13;;;;;;;5.47;5.07;;;;;20.80;100444.00;;;;2047782;28;20212;-52
2021/05/19 04:11:13;;;;;;;5.30;4.80;;;;;20.80;100443.00;;;;2045330;28;20822;-52
2021/05/19 04:12:14;;;;;;;5.60;4.63;;;;;20.80;100445.00;;;;2041270;28;20645;-52
2021/05/19 04:13:14;;;;;;;5.07;4.60;;;;;20.80;100441.00;;;;2042793;28;20315;-53
2021/05/19 04:14:14;;;;;;;4.93;4.53;;;;;20.90;100442.00;;;;2041136;28;20224;-51
2021/05/19 04:15:18;;;;;;;5.60;5.17;;;;;20.90;100443.00;;;;2045623;28;20226;-51
2021/05/19 04:16:19;;;;;;;4.95;4.50;;;;;20.80;100447.00;;;;2049251;28;20716;-52
2021/05/19 04:17:19;;;;;;;5.20;4.80;;;;;20.80;100446.00;;;;2053690;28;20239;-51
2021/05/19 04:18:21;;;;;;;4.70;4.30;;;;;20.90;100452.00;;;;2053622;28;20726;-52
2021/05/19 04:19:21;;;;;;;4.90;4.50;;;;;20.90;100455.00;;;;2050721;28;20996;-52
2021/05/19 04:20:22;;;;;;;5.80;5.30;;;;;20.90;100449.00;;;;2045728;28;20221;-52
2021/05/19 04:21:22;;;;;;;4.83;4.43;;;;;20.80;100452.00;;;;2044014;28;20295;-52
2021/05/19 04:22:22;;;;;;;6.90;5.30;;;;;20.70;100396.00;;;;2042520;29;20225;-52
2021/05/19 04:23:25;;;;;;;4.70;4.30;;;;;20.80;100445.00;;;;2045546;28;20563;-52
2021/05/19 04:24:26;;;;;;;4.80;4.40;;;;;20.80;100454.00;;;;2045003;28;20232;-51
2021/05/19 04:25:26;;;;;;;5.10;4.70;;;;;20.80;100453.00;;;;2046025;28;20303;-51
2021/05/19 04:26:26;;;;;;;4.97;4.50;;;;;20.80;100453.00;;;;2045524;28;20740;-52
2021/05/19 04:27:27;;;;;;;5.40;4.90;;;;;20.80;100446.00;;;;2045874;28;20581;-52
2021/05/19 04:28:27;;;;;;;5.40;5.00;;;;;20.80;100454.00;;;;2050232;28;20224;-51
2021/05/19 04:29:27;;;;;;;7.13;5.37;;;;;20.80;100456.00;;;;2053697;28;20224;-51
2021/05/19 04:30:28;;;;;;;5.47;4.97;;;;;20.80;100449.00;;;;2053380;28;20723;-51
2021/05/19 04:31:28;;;;;;;5.70;5.30;;;;;20.80;100450.00;;;;2048438;28;20224;-52
2021/05/19 04:32:28;;;;;;;5.13;4.73;;;;;20.80;100450.00;;;;2045302;29;20891;-52
2021/05/19 04:33:29;;;;;;;5.20;4.80;;;;;20.80;100455.00;;;;2038754;29;20305;-52
2021/05/19 04:34:29;;;;;;;5.60;5.20;;;;;20.80;100446.00;;;;2053249;28;20226;-52
2021/05/19 04:35:30;;;;;;;4.90;4.50;;;;;20.80;100452.00;;;;2053192;28;20229;-52
2021/05/19 04:36:31;;;;;;;5.63;5.00;;;;;20.80;100447.00;;;;2052172;28;20220;-52
2021/05/19 04:37:31;;;;;;;5.90;5.40;;;;;20.80;100456.00;;;;2041058;28;20972;-52
2021/05/19 04:38:32;;;;;;;6.30;5.70;;;;;20.80;100453.00;;;;2046553;28;20813;-52
2021/05/19 04:39:32;;;;;;;5.27;4.87;;;;;20.80;100455.00;;;;2046510;28;20232;-52
2021/05/19 04:40:32;;;;;;;5.27;4.87;;;;;20.80;100459.00;;;;2046041;28;20279;-52
2021/05/19 04:41:33;;;;;;;5.63;5.23;;;;;20.80;100457.00;;;;2041829;28;20216;-52
2021/05/19 04:42:33;;;;;;;5.43;5.03;;;;;20.80;100459.00;;;;2044547;28;20224;-53
2021/05/19 04:43:34;;;;;;;5.70;5.23;;;;;20.80;100455.00;;;;2040819;28;20229;-52
2021/05/19 04:44:34;;;;;;;5.83;5.33;;;;;20.80;100463.00;;;;2040941;28;20224;-52
2021/05/19 04:45:35;;;;;;;5.27;4.87;;;;;20.80;100459.00;;;;2044008;28;20216;-53
2021/05/19 04:46:37;;;;;;;6.00;5.30;;;;;20.80;100465.00;;;;2045229;28;20220;-52
2021/05/19 04:47:37;;;;;;;5.95;5.45;;;;;20.80;100456.00;;;;2040553;28;20243;-52
2021/05/19 04:48:37;;;;;;;5.00;4.60;;;;;20.80;100460.00;;;;2042450;28;20228;-52
2021/05/19 04:49:38;;;;;;;6.33;5.83;;;;;20.80;100469.00;;;;2040219;28;20281;-52
2021/05/19 04:50:39;;;;;;;6.50;6.00;;;;;20.80;100469.00;;;;2045394;28;20240;-53
2021/05/19 04:51:40;;;;;;;5.95;5.45;;;;;20.80;100469.00;;;;2044201;28;20566;-52
2021/05/19 04:52:40;;;;;;;5.60;5.10;;;;;20.80;100470.00;;;;2044565;28;20307;-52
2021/05/19 04:53:41;;;;;;;6.17;5.70;;;;;20.80;100472.00;;;;2043746;28;20263;-53
2021/05/19 04:54:41;;;;;;;6.80;6.30;;;;;20.80;100471.00;;;;2044539;28;20291;-53
2021/05/19 04:55:41;;;;;;;7.67;6.97;;;;;20.80;100462.00;;;;2048640;28;20715;-56
2021/05/19 04:56:42;;;;;;;6.87;6.27;;;;;20.80;100472.00;;;;2050562;28;20243;-52
2021/05/19 04:57:43;;;;;;;7.60;7.00;;;;;20.80;100473.00;;;;2048970;28;20590;-52
2021/05/19 04:58:43;;;;;;;9.47;8.57;;;;;20.80;100481.00;;;;2051361;28;20216;-52
2021/05/19 04:59:43;;;;;;;10.37;9.37;;;;;20.80;100470.00;;;;2043193;28;20909;-52
2021/05/19 05:00:44;;;;;;;9.77;8.77;;;;;20.80;100469.00;;;;2045039;29;20585;-52
2021/05/19 05:01:44;;;;;;;15.47;11.17;;;;;20.80;100467.00;;;;2040888;28;20598;-52